createdAt,value
2023-03-06T00:00:46.032Z,90.20
2023-03-06T00:03:12.818Z,90.60
2023-03-06T00:05:40.188Z,91.00
2023-03-06T00:08:07.068Z,91.20
2023-03-06T00:10:34.010Z,91.50
2023-03-06T00:13:04.672Z,91.50
2023-03-06T00:15:31.932Z,91.00
2023-03-06T00:17:58.877Z,90.90
2023-03-06T00:20:26.720Z,91.10
2023-03-06T00:22:55.439Z,91.30
2023-03-06T00:25:22.361Z,91.10
2023-03-06T00:27:49.817Z,91.10
2023-03-06T00:30:20.590Z,91.40
2023-03-06T00:32:47.427Z,91.40
2023-03-06T00:35:15.006Z,91.20
2023-03-06T00:37:44.367Z,91.30
2023-03-06T00:40:17.089Z,91.50
2023-03-06T00:42:44.340Z,91.20
2023-03-06T00:45:11.685Z,91.00
2023-03-06T00:47:39.453Z,90.90
2023-03-06T00:50:06.978Z,90.90
2023-03-06T00:52:33.860Z,91.00
2023-03-06T00:55:00.660Z,90.90
2023-03-06T00:57:27.362Z,90.60
2023-03-06T00:59:54.219Z,90.80
2023-03-06T01:02:21.822Z,90.50
2023-03-06T01:04:48.711Z,90.50
2023-03-06T01:07:15.466Z,90.00
2023-03-06T01:09:42.321Z,89.70
2023-03-06T01:12:09.450Z,90.10
2023-03-06T01:14:36.479Z,90.10
2023-03-06T01:17:03.232Z,90.30
2023-03-06T01:19:29.990Z,90.30
2023-03-06T01:21:56.870Z,90.40
2023-03-06T01:24:25.614Z,90.40
2023-03-06T01:26:54.668Z,90.90
2023-03-06T01:29:21.392Z,90.90
2023-03-06T01:31:48.189Z,90.70
2023-03-06T01:34:14.988Z,90.90
2023-03-06T01:36:42.019Z,91.00
2023-03-06T01:39:09.317Z,91.10
2023-03-06T01:41:36.419Z,91.20
2023-03-06T01:44:03.272Z,91.20
2023-03-06T01:46:33.308Z,91.00
2023-03-06T01:49:35.251Z,91.00
2023-03-06T01:52:07.133Z,90.00
2023-03-06T01:54:51.200Z,90.00
2023-03-06T01:57:21.101Z,90.60
2023-03-06T01:59:53.011Z,90.30
2023-03-06T02:02:20.870Z,90.20
2023-03-06T02:04:48.317Z,90.10
2023-03-06T02:07:18.448Z,90.30
2023-03-06T02:09:45.291Z,89.90
2023-03-06T02:12:16.378Z,90.00
2023-03-06T02:14:43.892Z,89.60
2023-03-06T02:17:13.384Z,89.60
2023-03-06T02:20:03.700Z,89.70
2023-03-06T02:22:40.048Z,89.80
2023-03-06T02:25:37.831Z,89.70
2023-03-06T02:28:10.670Z,89.20
2023-03-06T02:30:39.809Z,90.10
2023-03-06T02:33:06.625Z,90.20
2023-03-06T02:35:35.807Z,89.90
2023-03-06T02:38:10.447Z,89.70
2023-03-06T02:40:37.480Z,89.90
2023-03-06T02:43:05.439Z,89.40
2023-03-06T02:45:40.643Z,89.70
2023-03-06T02:48:07.960Z,90.10
2023-03-06T02:50:34.788Z,89.80
2023-03-06T02:53:01.548Z,90.00
2023-03-06T02:55:30.662Z,90.40
2023-03-06T02:57:57.503Z,90.40
2023-03-06T03:00:25.403Z,90.50
2023-03-06T03:02:52.954Z,90.80
2023-03-06T03:05:20.271Z,90.50
2023-03-06T03:07:53.042Z,90.50
2023-03-06T03:10:20.701Z,90.40
2023-03-06T03:12:48.211Z,90.30
2023-03-06T03:15:15.114Z,90.40
2023-03-06T03:17:42.055Z,90.60
2023-03-06T03:20:12.856Z,90.70
2023-03-06T03:22:39.735Z,90.70
2023-03-06T03:25:06.994Z,91.00
2023-03-06T03:27:33.799Z,90.70
2023-03-06T03:30:01.757Z,90.80
2023-03-06T03:32:29.768Z,91.10
2023-03-06T03:34:56.559Z,91.50
2023-03-06T03:37:25.263Z,92.30
2023-03-06T03:39:52.066Z,93.00
2023-03-06T03:42:18.845Z,94.00
2023-03-06T03:44:45.651Z,94.70
2023-03-06T03:47:12.415Z,95.30
2023-03-06T03:49:39.730Z,95.60
2023-03-06T03:52:06.970Z,96.00
2023-03-06T03:54:36.410Z,96.30
2023-03-06T03:57:03.308Z,96.50
2023-03-06T03:59:33.927Z,96.60
2023-03-06T04:02:08.277Z,96.60
2023-03-06T04:04:41.635Z,96.60
2023-03-06T04:07:10.016Z,96.60
2023-03-06T04:09:38.399Z,96.60
2023-03-06T04:12:06.047Z,96.60
2023-03-06T04:14:34.678Z,96.60
2023-03-06T04:17:02.012Z,96.60
2023-03-06T04:19:28.781Z,96.60
2023-03-06T04:21:55.623Z,96.60
2023-03-06T04:24:23.471Z,96.60
2023-03-06T04:26:50.299Z,96.60
2023-03-06T04:29:17.284Z,96.60
2023-03-06T04:31:44.366Z,96.60
2023-03-06T04:34:11.930Z,96.60
2023-03-06T04:36:39.100Z,96.60
2023-03-06T04:39:10.777Z,96.60
2023-03-06T04:41:37.516Z,96.60
2023-03-06T04:44:04.401Z,96.60
2023-03-06T04:46:31.241Z,96.60
2023-03-06T04:48:58.340Z,96.60
2023-03-06T04:51:25.297Z,96.60
2023-03-06T04:53:52.395Z,96.40
2023-03-06T04:56:19.366Z,96.60
2023-03-06T04:58:46.123Z,96.60
2023-03-06T05:01:12.895Z,96.50
2023-03-06T05:03:39.842Z,96.60
2023-03-06T05:06:07.074Z,96.60
2023-03-06T05:08:33.907Z,96.60
2023-03-06T05:11:02.303Z,96.60
2023-03-06T05:13:29.198Z,96.60
2023-03-06T05:16:00.892Z,96.60
2023-03-06T05:18:27.630Z,96.60
2023-03-06T05:20:59.399Z,96.60
2023-03-06T05:23:27.762Z,96.60
2023-03-06T05:25:54.581Z,96.60
2023-03-06T05:28:21.570Z,96.60
2023-03-06T05:30:48.938Z,96.60
2023-03-06T05:33:15.708Z,96.60
2023-03-06T05:35:49.382Z,96.60
2023-03-06T05:38:16.858Z,96.60
2023-03-06T05:40:44.449Z,96.60
2023-03-06T05:43:12.270Z,96.60
2023-03-06T05:45:39.896Z,96.60
2023-03-06T05:48:07.774Z,96.60
2023-03-06T05:50:34.711Z,96.60
2023-03-06T05:53:01.610Z,96.60
2023-03-06T05:55:29.560Z,96.60
2023-03-06T05:57:56.466Z,96.60
2023-03-06T06:00:24.075Z,96.60
2023-03-06T06:02:50.931Z,96.60
2023-03-06T06:05:17.808Z,96.60
2023-03-06T06:07:44.709Z,96.60
2023-03-06T06:10:12.294Z,96.60
2023-03-06T06:12:39.190Z,96.60
2023-03-06T06:15:06.880Z,96.60
2023-03-06T06:17:33.660Z,96.60
2023-03-06T06:20:00.425Z,96.60
2023-03-06T06:22:27.275Z,96.60
2023-03-06T06:24:53.975Z,96.60
2023-03-06T06:27:20.828Z,96.60
2023-03-06T06:29:50.852Z,96.60
2023-03-06T06:32:18.096Z,96.60
2023-03-06T06:34:45.059Z,96.60
2023-03-06T06:37:11.804Z,96.60
2023-03-06T06:39:38.550Z,96.60
2023-03-06T06:42:28.290Z,96.60
2023-03-06T06:44:52.288Z,96.60
2023-03-06T06:47:22.743Z,96.60
2023-03-06T06:49:53.021Z,96.60
2023-03-06T06:52:20.120Z,96.60
2023-03-06T06:54:46.895Z,96.60
2023-03-06T06:57:14.074Z,96.60
2023-03-06T06:59:40.997Z,96.60
2023-03-06T07:02:08.139Z,96.60
2023-03-06T07:04:34.944Z,96.60
2023-03-06T07:07:01.676Z,96.60
2023-03-06T07:09:30.768Z,96.60
2023-03-06T07:11:58.243Z,96.60
2023-03-06T07:14:25.187Z,96.60
2023-03-06T07:16:51.987Z,96.60
2023-03-06T07:19:18.804Z,96.60
2023-03-06T07:21:45.538Z,96.60
2023-03-06T07:24:12.323Z,96.60
2023-03-06T07:26:39.073Z,96.60
2023-03-06T07:29:05.873Z,96.60
2023-03-06T07:31:32.919Z,96.60
2023-03-06T07:34:00.183Z,96.60
2023-03-06T07:36:27.215Z,96.60
2023-03-06T07:38:53.988Z,96.60
2023-03-06T07:41:22.647Z,96.60
2023-03-06T07:43:50.511Z,96.60
2023-03-06T07:46:17.992Z,96.60
2023-03-06T07:48:44.891Z,96.60
2023-03-06T07:51:17.278Z,96.60
2023-03-06T07:53:44.721Z,96.60
2023-03-06T07:56:11.922Z,96.60
2023-03-06T07:58:41.223Z,96.60
2023-03-06T08:01:11.933Z,96.60
2023-03-06T08:03:38.767Z,96.60
2023-03-06T08:06:17.353Z,96.60
2023-03-06T08:08:46.027Z,96.60
2023-03-06T08:11:14.966Z,96.60
2023-03-06T08:13:42.168Z,96.60
2023-03-06T08:16:09.788Z,96.60
2023-03-06T08:18:38.006Z,96.60
2023-03-06T08:21:07.814Z,96.60
2023-03-06T08:23:35.682Z,96.60
2023-03-06T08:26:12.234Z,96.60
2023-03-06T08:28:39.516Z,96.60
2023-03-06T08:31:23.794Z,96.60
2023-03-06T08:33:50.699Z,96.60
2023-03-06T08:36:17.475Z,96.60
2023-03-06T08:38:44.207Z,96.60
2023-03-06T08:41:11.067Z,96.60
2023-03-06T08:43:37.798Z,96.60
2023-03-06T08:46:04.687Z,96.60
2023-03-06T08:48:31.605Z,96.60
2023-03-06T08:50:58.480Z,96.60
2023-03-06T08:53:40.352Z,96.60
2023-03-06T08:56:28.879Z,96.60
2023-03-06T08:58:56.949Z,96.60
2023-03-06T09:01:28.346Z,96.60
2023-03-06T09:03:58.055Z,96.60
2023-03-06T09:06:25.922Z,96.60
2023-03-06T09:08:53.687Z,96.10
2023-03-06T09:11:22.500Z,95.40
2023-03-06T09:13:49.221Z,94.70
2023-03-06T09:16:16.241Z,94.10
2023-03-06T09:18:43.061Z,94.30
2023-03-06T09:21:10.391Z,93.50
2023-03-06T09:23:39.563Z,93.00
2023-03-06T09:26:07.405Z,93.10
2023-03-06T09:28:38.897Z,93.30
2023-03-06T09:31:18.879Z,92.60
2023-03-06T09:33:46.433Z,93.20
2023-03-06T09:36:19.513Z,93.00
2023-03-06T09:38:48.166Z,92.10
2023-03-06T09:41:33.000Z,92.40
2023-03-06T09:44:08.523Z,90.50
2023-03-06T09:47:02.096Z,90.10
2023-03-06T09:49:49.894Z,89.60
2023-03-06T09:52:36.216Z,91.10
2023-03-06T09:55:13.032Z,89.60
2023-03-06T09:57:52.521Z,90.00
2023-03-06T10:00:35.441Z,90.20
2023-03-06T10:03:22.096Z,90.60
2023-03-06T10:06:00.900Z,91.70
2023-03-06T10:08:52.836Z,92.80
2023-03-06T10:11:31.212Z,92.10
2023-03-06T10:14:27.849Z,91.80
2023-03-06T10:16:56.075Z,91.20
2023-03-06T10:19:23.838Z,91.10
2023-03-06T10:22:04.916Z,90.90
2023-03-06T10:24:49.760Z,92.00
2023-03-06T10:27:26.947Z,90.80
2023-03-06T10:30:21.538Z,91.40
2023-03-06T10:32:55.148Z,91.00
2023-03-06T10:35:30.444Z,91.90
2023-03-06T10:38:12.217Z,91.80
2023-03-06T10:41:07.678Z,91.90
2023-03-06T10:43:36.594Z,92.00
2023-03-06T10:46:05.002Z,91.50
2023-03-06T10:48:35.811Z,91.60
2023-03-06T10:51:19.380Z,91.90
2023-03-06T10:54:01.339Z,91.40
2023-03-06T10:56:36.725Z,91.50
2023-03-06T10:59:19.732Z,90.70
2023-03-06T11:01:50.622Z,90.30
2023-03-06T11:04:34.659Z,88.20
2023-03-06T11:07:17.092Z,87.50
2023-03-06T11:09:57.767Z,87.90
2023-03-06T11:12:33.381Z,87.80
2023-03-06T11:15:15.109Z,89.50
2023-03-06T11:17:56.594Z,90.20
2023-03-06T11:20:26.376Z,88.90
2023-03-06T11:23:06.460Z,89.10
2023-03-06T11:25:39.168Z,88.80
2023-03-06T11:28:23.739Z,89.50
2023-03-06T11:30:56.226Z,89.70
2023-03-06T11:33:49.231Z,90.00
2023-03-06T11:36:30.053Z,89.90
2023-03-06T11:38:56.839Z,90.20
2023-03-06T11:41:35.632Z,90.30
2023-03-06T11:44:17.356Z,90.10
2023-03-06T11:46:50.528Z,89.80
2023-03-06T11:49:26.073Z,90.30
2023-03-06T11:51:59.188Z,89.20
2023-03-06T11:54:26.276Z,88.90
2023-03-06T11:56:58.161Z,89.20
2023-03-06T11:59:33.908Z,88.30
2023-03-06T12:02:25.308Z,87.80
2023-03-06T12:05:21.164Z,88.50
2023-03-06T12:07:52.951Z,87.90
2023-03-06T12:10:31.061Z,87.50
2023-03-06T12:13:26.148Z,86.70
2023-03-06T12:16:07.364Z,86.10
2023-03-06T12:18:49.650Z,85.80
2023-03-06T12:21:25.645Z,85.60
2023-03-06T12:24:23.264Z,85.10
2023-03-06T12:27:17.058Z,85.10
2023-03-06T12:30:17.464Z,84.00
2023-03-06T12:33:09.314Z,83.90
2023-03-06T12:35:47.815Z,84.50
2023-03-06T12:38:51.938Z,83.00
2023-03-06T12:41:39.815Z,85.60
2023-03-06T12:44:42.400Z,84.00
2023-03-06T12:47:13.712Z,83.10
2023-03-06T12:49:43.365Z,81.60
2023-03-06T12:52:21.625Z,78.90
2023-03-06T12:54:54.115Z,79.30
2023-03-06T12:57:25.019Z,79.50
2023-03-06T12:59:52.963Z,79.80
2023-03-06T13:02:28.482Z,80.80
2023-03-06T13:05:23.963Z,80.40
2023-03-06T13:08:09.498Z,79.00
2023-03-06T13:10:38.758Z,78.70
2023-03-06T13:13:32.173Z,80.10
2023-03-06T13:16:04.840Z,80.40
2023-03-06T13:18:34.627Z,81.40
2023-03-06T13:21:02.289Z,81.30
2023-03-06T13:23:35.628Z,81.40
2023-03-06T13:26:10.735Z,81.80
2023-03-06T13:28:44.568Z,80.40
2023-03-06T13:31:26.452Z,82.40
2023-03-06T13:34:06.137Z,82.70
2023-03-06T13:36:38.293Z,83.20
2023-03-06T13:39:10.501Z,85.20
2023-03-06T13:41:54.564Z,85.90
2023-03-06T13:44:24.450Z,86.70
2023-03-06T13:47:01.741Z,87.80
2023-03-06T13:49:29.801Z,88.70
2023-03-06T13:52:10.477Z,89.90
2023-03-06T13:54:55.273Z,90.10
2023-03-06T13:57:47.125Z,89.90
2023-03-06T14:00:50.868Z,88.60
2023-03-06T14:03:42.456Z,89.00
2023-03-06T14:06:52.896Z,88.20
2023-03-06T14:09:43.266Z,87.60
2023-03-06T14:12:24.382Z,87.60
2023-03-06T14:14:56.455Z,86.70
2023-03-06T14:17:34.995Z,86.50
2023-03-06T14:20:13.385Z,85.90
2023-03-06T14:22:40.243Z,85.70
2023-03-06T14:25:29.886Z,85.80
2023-03-06T14:28:05.654Z,86.00
2023-03-06T14:30:49.486Z,85.70
2023-03-06T14:33:26.221Z,86.10
2023-03-06T14:35:56.631Z,85.90
2023-03-06T14:38:23.544Z,85.80
2023-03-06T14:40:52.272Z,85.60
2023-03-06T14:43:24.766Z,85.70
2023-03-06T14:45:57.307Z,86.20
2023-03-06T14:48:36.025Z,86.80
2023-03-06T14:51:02.889Z,85.90
2023-03-06T14:53:33.013Z,86.20
2023-03-06T14:56:07.484Z,86.70
2023-03-06T14:58:54.322Z,87.70
2023-03-06T15:01:43.358Z,87.30
2023-03-06T15:04:31.727Z,87.40
2023-03-06T15:06:59.334Z,86.70
2023-03-06T15:09:32.731Z,86.70
2023-03-06T15:12:00.912Z,87.30
2023-03-06T15:14:38.694Z,87.00
2023-03-06T15:17:17.630Z,86.80
2023-03-06T15:19:49.603Z,87.20
2023-03-06T15:22:31.196Z,87.70
2023-03-06T15:25:21.086Z,87.80
2023-03-06T15:27:52.108Z,87.80
2023-03-06T15:30:33.831Z,88.10
2023-03-06T15:33:19.091Z,88.00
2023-03-06T15:36:21.601Z,88.10
2023-03-06T15:38:48.492Z,88.50
2023-03-06T15:41:27.243Z,88.70
2023-03-06T15:43:54.153Z,87.90
2023-03-06T15:46:20.890Z,88.10
2023-03-06T15:49:03.149Z,89.10
2023-03-06T15:51:31.179Z,88.20
2023-03-06T15:54:09.903Z,88.80
2023-03-06T15:56:40.806Z,88.50
2023-03-06T15:59:14.042Z,88.10
2023-03-06T16:01:42.916Z,87.70
2023-03-06T16:04:10.708Z,87.80
2023-03-06T16:06:37.801Z,87.50
2023-03-06T16:09:05.797Z,87.70
2023-03-06T16:11:43.325Z,87.50
2023-03-06T16:14:23.503Z,87.50
2023-03-06T16:16:51.948Z,87.60
2023-03-06T16:19:26.225Z,87.70
2023-03-06T16:21:54.686Z,87.90
2023-03-06T16:24:21.839Z,88.00
2023-03-06T16:26:52.932Z,88.00
2023-03-06T16:29:23.246Z,88.10
2023-03-06T16:31:50.264Z,88.20
2023-03-06T16:34:19.710Z,88.30
2023-03-06T16:36:47.816Z,88.60
2023-03-06T16:39:20.066Z,88.90
2023-03-06T16:41:47.097Z,89.40
2023-03-06T16:44:13.933Z,89.70
2023-03-06T16:46:45.700Z,89.80
2023-03-06T16:49:23.836Z,90.20
2023-03-06T16:51:51.878Z,90.20
2023-03-06T16:54:19.203Z,90.20
2023-03-06T16:56:46.122Z,90.20
2023-03-06T16:59:13.394Z,90.20
2023-03-06T17:01:42.917Z,90.40
2023-03-06T17:04:10.784Z,90.50
2023-03-06T17:06:38.340Z,90.70
2023-03-06T17:09:05.243Z,90.60
2023-03-06T17:11:32.022Z,90.70
2023-03-06T17:13:58.876Z,91.10
2023-03-06T17:16:25.589Z,91.40
2023-03-06T17:18:52.438Z,91.60
2023-03-06T17:21:19.268Z,91.50
2023-03-06T17:23:46.392Z,91.20
2023-03-06T17:26:18.113Z,91.40
2023-03-06T17:28:45.687Z,91.10
2023-03-06T17:31:17.971Z,90.90
2023-03-06T17:33:45.139Z,90.80
2023-03-06T17:36:12.560Z,90.00
2023-03-06T17:38:39.318Z,89.90
2023-03-06T17:41:09.583Z,89.40
2023-03-06T17:43:37.784Z,89.20
2023-03-06T17:46:06.136Z,89.10
2023-03-06T17:48:33.213Z,88.50
2023-03-06T17:51:00.251Z,88.40
2023-03-06T17:53:27.398Z,88.50
2023-03-06T17:55:55.177Z,88.40
2023-03-06T17:58:21.943Z,88.50
2023-03-06T18:00:49.041Z,88.30
2023-03-06T18:03:16.068Z,88.40
2023-03-06T18:05:43.711Z,88.50
2023-03-06T18:08:10.432Z,88.60
2023-03-06T18:10:41.525Z,88.60
2023-03-06T18:13:09.202Z,88.70
2023-03-06T18:15:40.279Z,88.80
2023-03-06T18:18:08.100Z,88.70
2023-03-06T18:20:40.338Z,88.60
2023-03-06T18:23:07.061Z,89.10
2023-03-06T18:25:34.192Z,88.70
2023-03-06T18:28:00.924Z,89.00
2023-03-06T18:30:27.850Z,88.80
2023-03-06T18:32:54.874Z,89.30
2023-03-06T18:35:21.977Z,89.00
2023-03-06T18:37:48.799Z,89.00
2023-03-06T18:40:15.821Z,89.20
2023-03-06T18:42:42.582Z,89.10
2023-03-06T18:45:10.283Z,89.70
2023-03-06T18:47:37.012Z,89.90
2023-03-06T18:50:04.051Z,89.80
2023-03-06T18:52:30.877Z,90.00
2023-03-06T18:54:57.733Z,89.90
2023-03-06T18:57:24.551Z,90.00
2023-03-06T18:59:51.286Z,90.30
2023-03-06T19:02:18.013Z,90.60
2023-03-06T19:04:45.091Z,90.80
2023-03-06T19:07:13.491Z,91.40
2023-03-06T19:09:41.029Z,91.40
2023-03-06T19:12:08.716Z,91.40
2023-03-06T19:14:36.336Z,91.60
2023-03-06T19:17:03.181Z,91.80
2023-03-06T19:19:29.966Z,92.30
2023-03-06T19:22:00.188Z,92.20
2023-03-06T19:24:27.049Z,92.60
2023-03-06T19:26:54.002Z,92.90
2023-03-06T19:29:20.856Z,93.50
2023-03-06T19:31:47.699Z,93.90
2023-03-06T19:34:15.191Z,94.70
2023-03-06T19:36:41.961Z,95.30
2023-03-06T19:39:09.497Z,95.70
2023-03-06T19:41:36.492Z,96.00
2023-03-06T19:44:05.632Z,96.50
2023-03-06T19:46:33.216Z,96.60
2023-03-06T19:49:02.088Z,96.60
2023-03-06T19:51:29.505Z,96.60
2023-03-06T19:53:57.594Z,96.60
2023-03-06T19:56:29.055Z,96.60
2023-03-06T19:58:56.486Z,96.60
2023-03-06T20:01:25.091Z,96.60
2023-03-06T20:03:59.730Z,96.60
2023-03-06T20:06:29.069Z,96.60
2023-03-06T20:08:55.888Z,96.60
2023-03-06T20:11:25.298Z,96.60
2023-03-06T20:13:52.259Z,96.60
2023-03-06T20:16:19.617Z,96.60
2023-03-06T20:18:46.479Z,96.60
2023-03-06T20:21:14.295Z,96.60
2023-03-06T20:23:41.743Z,96.60
2023-03-06T20:26:11.885Z,96.60
2023-03-06T20:28:39.544Z,96.60
2023-03-06T20:31:13.296Z,96.60
2023-03-06T20:33:40.247Z,96.60
2023-03-06T20:36:28.860Z,96.60
2023-03-06T20:38:56.672Z,96.60
2023-03-06T20:41:26.118Z,96.60
2023-03-06T20:43:53.447Z,96.60
2023-03-06T20:46:21.977Z,96.60
2023-03-06T20:48:51.939Z,96.60
2023-03-06T20:51:21.809Z,96.60
2023-03-06T20:53:50.104Z,96.60
2023-03-06T20:56:19.084Z,96.60
2023-03-06T20:58:46.036Z,96.60
2023-03-06T21:01:26.745Z,96.60
2023-03-06T21:03:54.295Z,96.60
2023-03-06T21:06:21.526Z,96.60
2023-03-06T21:08:48.278Z,96.60
2023-03-06T21:11:15.646Z,96.60
2023-03-06T21:13:42.764Z,96.60
2023-03-06T21:16:14.733Z,96.60
2023-03-06T21:18:41.967Z,96.60
2023-03-06T21:21:11.625Z,96.60
2023-03-06T21:23:38.911Z,96.60
2023-03-06T21:26:06.305Z,96.60
2023-03-06T21:28:33.486Z,96.60
2023-03-06T21:31:00.971Z,96.60
2023-03-06T21:33:28.473Z,96.60
2023-03-06T21:35:55.395Z,96.60
2023-03-06T21:38:22.263Z,96.60
2023-03-06T21:40:49.047Z,96.60
2023-03-06T21:43:17.427Z,96.60
2023-03-06T21:45:45.899Z,96.60
2023-03-06T21:48:14.154Z,96.60
2023-03-06T21:50:41.415Z,96.60
2023-03-06T21:53:09.294Z,96.60
2023-03-06T21:55:40.396Z,96.60
2023-03-06T21:58:07.460Z,96.60
2023-03-06T22:00:37.146Z,96.60
2023-03-06T22:03:04.829Z,96.60
2023-03-06T22:05:31.978Z,96.60
2023-03-06T22:07:59.280Z,96.60
2023-03-06T22:10:26.082Z,96.60
2023-03-06T22:12:52.941Z,96.60
2023-03-06T22:15:21.769Z,96.60
2023-03-06T22:17:48.755Z,96.60
2023-03-06T22:20:15.701Z,96.60
2023-03-06T22:22:43.601Z,96.60
2023-03-06T22:25:11.823Z,96.60
2023-03-06T22:27:38.592Z,96.60
2023-03-06T22:30:05.854Z,96.60
2023-03-06T22:32:32.749Z,96.60
2023-03-06T22:34:59.482Z,96.60
2023-03-06T22:37:26.204Z,96.50
2023-03-06T22:39:52.952Z,96.60
2023-03-06T22:42:19.726Z,96.60
2023-03-06T22:44:46.583Z,96.60
2023-03-06T22:47:13.310Z,96.50
2023-03-06T22:49:40.193Z,96.60
2023-03-06T22:52:07.062Z,96.60
2023-03-06T22:54:33.917Z,96.60
2023-03-06T22:57:00.632Z,96.60
2023-03-06T22:59:27.477Z,96.60
2023-03-06T23:01:54.242Z,96.50
2023-03-06T23:04:21.165Z,96.60
2023-03-06T23:06:47.966Z,96.30
2023-03-06T23:09:21.332Z,96.00
2023-03-06T23:12:07.607Z,95.90
2023-03-06T23:14:52.886Z,95.40
2023-03-06T23:17:38.342Z,95.10
2023-03-06T23:20:23.712Z,94.80
2023-03-06T23:23:09.827Z,94.70
2023-03-06T23:25:43.560Z,94.00
2023-03-06T23:28:10.736Z,94.00
2023-03-06T23:30:41.754Z,93.50
2023-03-06T23:33:09.351Z,93.10
2023-03-06T23:35:37.669Z,92.90
2023-03-06T23:38:04.975Z,93.20
2023-03-06T23:40:33.454Z,92.90
2023-03-06T23:43:00.421Z,92.80
2023-03-06T23:45:27.408Z,92.50
2023-03-06T23:47:54.188Z,92.60
2023-03-06T23:50:21.175Z,92.30
2023-03-06T23:52:48.011Z,91.70
2023-03-06T23:55:14.843Z,92.00
2023-03-06T23:57:41.570Z,91.90
